Time;durP1;ratioP1;P1;durP2;ratioP2;P2;SDS_P1;SDS_P2;PMS_P1;PMS_P2;Temp;Humidity;BMP_temperature;BMP_pressure;BME280_temperature;BME280_humidity;BME280_pressure;Samples;Min_cycle;Max_cycle;Signal;HPM_P1;HPM_P2
2023/07/15 00:00:38;;;;;;;;;;;23.00;36.40;;;22.27;36.17;100885.59;12260539;19;19926;-87
2023/07/15 00:04:43;;;;;;;;;;;22.90;36.60;;;22.16;36.06;100866.38;12256334;19;20617;-87
2023/07/15 00:08:45;;;;;;;;;;;22.80;36.60;;;21.96;36.33;100845.31;12262001;19;19914;-87
2023/07/15 00:12:47;;;;;;;;;;;22.80;36.70;;;22.10;36.40;100868.66;12259332;19;20015;-86
2023/07/15 00:16:52;;;;;;;;;;;22.70;36.70;;;22.09;36.54;100871.50;12259307;19;19922;-87
2023/07/15 00:20:54;;;;;;;;;;;22.70;36.70;;;21.94;36.53;100847.28;12258812;19;19924;-89
2023/07/15 00:24:56;;;;;;;;;;;22.70;36.80;;;21.74;36.11;100819.19;12256808;19;19921;-88
2023/07/15 00:28:58;;;;;;;;;;;22.60;36.80;;;21.87;36.72;100849.75;12259475;19;19919;-88
2023/07/15 00:32:59;;;;;;;;;;;22.60;36.80;;;21.91;36.27;100847.59;12255275;19;19943;-88
2023/07/15 00:37:01;;;;;;;;;;;22.50;36.90;;;21.63;36.57;100807.84;12259242;19;19911;-88
2023/07/15 00:41:05;;;;;;;;;;;22.50;36.80;;;21.80;36.39;100838.03;12253557;19;19923;-88
2023/07/15 00:45:08;;;;;;;;;;;22.50;36.90;;;21.81;36.71;100841.53;12251040;19;19915;-88
2023/07/15 00:49:29;;;;;;;;;;;22.40;36.80;;;21.61;36.58;100807.16;12254811;19;19923;-88
2023/07/15 00:53:30;;;;;;;;;;;22.40;36.90;;;21.73;36.52;100822.84;12248552;19;19922;-88
2023/07/15 00:57:32;;;;;;;;;;;22.40;37.00;;;21.65;37.02;100823.63;12254696;19;19917;-88
2023/07/15 01:01:35;;;;;;;;;;;22.40;36.90;;;21.68;36.83;100827.81;12256241;19;20318;-88
2023/07/15 01:05:36;;;;;;;;;;;22.30;36.90;;;21.66;36.69;100827.97;12256838;19;19918;-88
2023/07/15 01:09:39;;;;;;;;;;;22.30;36.90;;;21.64;36.88;100835.25;12258307;19;19942;-88
2023/07/15 01:13:40;;;;;;;;;;;22.30;37.00;;;21.62;37.06;100822.13;12255627;19;19923;-88
2023/07/15 01:17:42;;;;;;;;;;;22.30;37.10;;;21.62;36.99;100823.94;12255341;19;19925;-89
2023/07/15 01:21:47;;;;;;;;;;;22.30;37.10;;;21.52;37.18;100810.75;12257751;19;19918;-88
2023/07/15 01:25:49;;;;;;;;;;;22.20;36.90;;;21.33;36.72;100779.84;12255898;19;20259;-88
2023/07/15 01:29:50;;;;;;;;;;;22.20;37.00;;;21.51;37.00;100808.25;12257028;19;19918;-89
2023/07/15 01:33:52;;;;;;;;;;;22.20;37.00;;;21.46;37.06;100819.31;12255390;19;19918;-88
2023/07/15 01:37:55;;;;;;;;;;;22.20;37.00;;;21.33;37.22;100793.13;12254028;19;20397;-88
2023/07/15 01:41:59;;;;;;;;;;;22.10;37.00;;;21.34;37.30;100796.63;12254712;19;19923;-87
2023/07/15 01:46:01;;;;;;;;;;;22.10;37.00;;;21.24;37.14;100791.38;12254777;19;19919;-88
2023/07/15 01:50:05;;;;;;;;;;;22.00;37.00;;;21.09;37.27;100771.66;12250735;19;19923;-88
2023/07/15 01:54:08;;;;;;;;;;;21.90;37.00;;;21.11;37.06;100786.44;12252081;19;19923;-88
2023/07/15 01:58:10;;;;;;;;;;;21.80;37.00;;;20.86;37.38;100744.72;12254793;19;19922;-89
2023/07/15 02:02:11;;;;;;;;;;;21.80;37.20;;;20.91;37.46;100759.22;12251634;19;20277;-88
2023/07/15 02:06:13;;;;;;;;;;;21.70;37.10;;;20.93;37.56;100769.69;12254019;19;19956;-88
2023/07/15 02:10:15;;;;;;;;;;;21.60;37.20;;;20.89;37.26;100768.31;12254661;19;19923;-88
2023/07/15 02:14:16;;;;;;;;;;;21.60;37.30;;;20.83;37.53;100761.78;12249263;19;19927;-88
2023/07/15 02:18:18;;;;;;;;;;;21.50;37.30;;;20.80;37.21;100761.25;12252290;19;19974;-88
2023/07/15 02:22:20;;;;;;;;;;;21.50;37.30;;;20.71;37.38;100755.00;12251171;19;20252;-88
2023/07/15 02:26:21;;;;;;;;;;;21.50;37.40;;;20.68;37.49;100748.19;12253046;19;19923;-88
2023/07/15 02:30:23;;;;;;;;;;;21.50;37.40;;;20.78;37.29;100770.19;12252287;19;19928;-88
2023/07/15 02:34:25;;;;;;;;;;;21.50;37.40;;;20.70;37.41;100754.19;12251747;19;19927;-88
2023/07/15 02:38:27;;;;;;;;;;;21.40;38.10;;;20.66;37.44;100747.53;12253981;19;19914;-88
2023/07/15 02:42:28;;;;;;;;;;;21.40;37.60;;;20.52;37.65;100737.34;12250872;19;19911;-88
2023/07/15 02:46:30;;;;;;;;;;;21.40;37.50;;;20.59;37.42;100756.22;12253839;19;19986;-88
2023/07/15 02:50:32;;;;;;;;;;;21.40;37.80;;;20.63;37.56;100762.88;12251409;19;19911;-88
2023/07/15 02:54:34;;;;;;;;;;;21.40;37.60;;;20.50;37.69;100761.41;12248036;19;19982;-88
2023/07/15 02:58:35;;;;;;;;;;;21.30;37.50;;;20.48;37.75;100773.97;12251587;19;19911;-88
2023/07/15 03:02:37;;;;;;;;;;;21.20;37.40;;;20.44;37.80;100775.28;12250629;19;19927;-88
2023/07/15 03:06:39;;;;;;;;;;;21.20;37.60;;;20.27;37.61;100760.94;12249811;19;20362;-88
2023/07/15 03:10:45;;;;;;;;;;;21.10;37.50;;;20.27;37.75;100762.78;12253024;19;19922;-88
2023/07/15 03:14:47;;;;;;;;;;;21.00;37.60;;;20.15;37.98;100740.94;12247202;19;20361;-88
2023/07/15 03:18:48;;;;;;;;;;;21.00;37.60;;;20.23;37.70;100759.59;12251988;19;20335;-88
2023/07/15 03:22:51;;;;;;;;;;;21.00;37.80;;;20.23;37.94;100759.59;12249920;19;19986;-88
2023/07/15 03:26:53;;;;;;;;;;;21.00;37.70;;;19.98;37.81;100723.97;12251434;19;19914;-88
2023/07/15 03:30:54;;;;;;;;;;;20.90;37.80;;;20.18;37.77;100758.34;12252405;19;19940;-88
2023/07/15 03:34:56;;;;;;;;;;;20.90;37.80;;;20.10;37.91;100756.44;12246877;19;19922;-88
2023/07/15 03:38:58;;;;;;;;;;;20.90;37.90;;;20.06;38.35;100741.78;12249166;19;20017;-88
2023/07/15 03:42:59;;;;;;;;;;;20.90;38.00;;;20.08;37.99;100745.13;12247961;19;19931;-88
2023/07/15 03:47:01;;;;;;;;;;;20.80;37.90;;;20.04;38.20;100735.81;12247732;19;19938;-88
2023/07/15 03:51:03;;;;;;;;;;;20.80;37.90;;;19.94;38.30;100732.34;12249769;19;19926;-88
2023/07/15 03:55:05;;;;;;;;;;;20.80;38.00;;;19.73;38.20;100701.59;12248233;19;20325;-88
2023/07/15 03:59:07;;;;;;;;;;;20.70;38.20;;;19.96;38.38;100728.59;12253105;19;19926;-88
2023/07/15 04:03:09;;;;;;;;;;;20.70;38.10;;;19.91;38.28;100727.34;12258976;19;19926;-88
2023/07/15 04:07:10;;;;;;;;;;;20.70;38.10;;;19.78;38.25;100717.91;12263688;19;20304;-88
2023/07/15 04:11:12;;;;;;;;;;;20.70;38.20;;;19.80;38.35;100733.66;12264083;19;19919;-88
2023/07/15 04:15:14;;;;;;;;;;;20.60;38.20;;;19.64;38.76;100700.63;12257857;19;19990;-88
2023/07/15 04:19:16;;;;;;;;;;;20.60;38.30;;;19.86;38.81;100733.09;12259765;19;19919;-88
2023/07/15 04:23:18;;;;;;;;;;;20.60;38.40;;;19.81;38.67;100708.81;12258318;19;19919;-88
2023/07/15 04:27:19;;;;;;;;;;;20.60;38.50;;;19.64;38.63;100683.91;12258108;19;19923;-88
2023/07/15 04:31:21;;;;;;;;;;;20.60;38.60;;;19.81;38.87;100703.53;12260650;19;19933;-88
2023/07/15 04:35:23;;;;;;;;;;;20.60;38.70;;;19.89;39.00;100720.38;12260210;19;19939;-88
2023/07/15 04:39:28;;;;;;;;;;;20.70;39.10;;;19.74;38.95;100683.88;12259725;19;19919;-88
2023/07/15 04:43:30;;;;;;;;;;;20.70;39.00;;;19.89;38.98;100693.84;12256851;19;19926;-88
2023/07/15 04:47:32;;;;;;;;;;;20.80;39.00;;;19.99;38.77;100704.44;12258691;19;19914;-88
2023/07/15 04:51:34;;;;;;;;;;;20.80;39.00;;;20.05;39.10;100708.31;12256965;19;19926;-88
2023/07/15 04:55:36;;;;;;;;;;;20.90;39.50;;;20.16;39.12;100710.75;12258592;19;19915;-88
2023/07/15 04:59:38;;;;;;;;;;;21.00;39.20;;;20.34;39.28;100711.66;12256874;19;19935;-88
2023/07/15 05:03:40;;;;;;;;;;;21.10;39.60;;;20.35;39.27;100693.91;12254794;19;20252;-89
2023/07/15 05:07:42;;;;;;;;;;;21.20;39.50;;;20.57;39.10;100707.78;12257325;19;19915;-88
2023/07/15 05:11:43;;;;;;;;;;;21.40;39.60;;;20.43;39.29;100672.78;12254314;19;20308;-88
2023/07/15 05:15:44;;;;;;;;;;;21.50;39.50;;;20.74;39.55;100712.28;12256777;19;19915;-88
2023/07/15 05:19:46;;;;;;;;;;;21.60;39.50;;;20.77;39.33;100696.03;12258033;19;19919;-88
2023/07/15 05:23:47;;;;;;;;;;;21.70;40.10;;;20.94;39.28;100710.28;12253529;19;19931;-88
2023/07/15 05:27:49;;;;;;;;;;;21.80;39.50;;;21.05;39.43;100707.41;12253691;19;19915;-88
2023/07/15 05:31:50;;;;;;;;;;;21.90;39.80;;;21.05;39.39;100698.59;12256372;19;20684;-88
2023/07/15 05:35:54;;;;;;;;;;;22.00;39.80;;;21.23;39.68;100706.56;12255933;19;19923;-88
2023/07/15 05:39:56;;;;;;;;;;;22.20;39.20;;;21.38;39.73;100712.97;12254841;19;20020;-89
2023/07/15 05:43:58;;;;;;;;;;;22.30;39.90;;;21.51;39.69;100712.59;12251933;19;19971;-88
2023/07/15 05:47:59;;;;;;;;;;;22.40;39.60;;;21.57;39.57;100701.31;12254069;19;19911;-87
2023/07/15 05:52:00;;;;;;;;;;;22.50;39.90;;;21.81;39.91;100708.59;12253424;19;19915;-88
2023/07/15 05:56:02;;;;;;;;;;;22.70;40.00;;;21.97;40.03;100713.16;12255104;19;20271;-87
2023/07/15 06:00:04;;;;;;;;;;;22.90;40.40;;;22.13;39.96;100712.41;12251914;19;19915;-88
2023/07/15 06:04:10;;;;;;;;;;;23.10;40.30;;;22.41;39.72;100715.69;12243613;19;19919;-87
2023/07/15 06:08:12;;;;;;;;;;;23.30;40.60;;;22.39;39.68;100665.31;12248963;19;19927;-87
2023/07/15 06:12:13;;;;;;;;;;;23.60;40.50;;;22.87;39.96;100703.66;12244816;19;19933;-88
2023/07/15 06:16:16;;;;;;;;;;;23.80;41.00;;;23.08;40.20;100697.00;12248723;19;19940;-87
2023/07/15 06:20:18;;;;;;;;;;;24.00;40.30;;;23.26;40.11;100681.69;12247366;19;19926;-88
2023/07/15 06:24:19;;;;;;;;;;;24.30;40.20;;;23.38;39.95;100664.31;12243600;19;19926;-88
2023/07/15 06:28:20;;;;;;;;;;;24.60;40.00;;;23.57;39.85;100657.81;12249008;19;19918;-87
2023/07/15 06:32:22;;;;;;;;;;;24.80;40.30;;;23.94;39.77;100680.34;12246875;19;19971;-87
2023/07/15 06:36:24;;;;;;;;;;;25.00;39.80;;;24.17;40.10;100693.78;12249558;19;19925;-87
2023/07/15 06:40:26;;;;;;;;;;;25.20;39.60;;;24.33;39.72;100686.66;12247550;19;19947;-86
2023/07/15 06:44:28;;;;;;;;;;;25.40;39.80;;;24.53;39.95;100698.59;12244235;19;19958;-88
2023/07/15 06:48:29;;;;;;;;;;;25.60;39.50;;;24.63;39.97;100695.72;12247103;19;19943;-86
2023/07/15 06:52:31;;;;;;;;;;;25.70;39.40;;;24.61;39.98;100663.84;12246593;19;19984;-87
2023/07/15 06:56:33;;;;;;;;;;;25.90;39.40;;;24.96;39.83;100690.94;12247498;19;19915;-87
2023/07/15 07:00:34;;;;;;;;;;;26.00;39.20;;;25.09;39.57;100688.50;12245064;19;20338;-86
2023/07/15 07:04:36;;;;;;;;;;;26.20;39.30;;;25.22;39.76;100677.22;12243714;19;20238;-86
2023/07/15 07:08:38;;;;;;;;;;;26.30;39.30;;;25.12;39.64;100645.38;12246526;19;19927;-86
2023/07/15 07:12:39;;;;;;;;;;;26.40;39.10;;;25.46;39.63;100673.44;12245833;19;19929;-86
2023/07/15 07:16:42;;;;;;;;;;;26.60;39.00;;;25.63;39.77;100675.94;12243760;19;19957;-87
2023/07/15 07:20:43;;;;;;;;;;;26.70;39.00;;;25.69;39.46;100669.88;12245735;19;20318;-87
2023/07/15 07:24:46;;;;;;;;;;;26.80;39.10;;;25.96;39.59;100669.22;12240683;19;20352;-87
2023/07/15 07:28:47;;;;;;;;;;;27.00;39.10;;;26.12;39.66;100660.16;12245649;19;19919;-87
2023/07/15 07:32:49;;;;;;;;;;;27.20;39.10;;;26.33;39.66;100654.03;12244661;19;19919;-86
2023/07/15 07:36:51;;;;;;;;;;;27.40;39.10;;;26.54;39.39;100645.19;12254361;19;20385;-87
2023/07/15 07:40:53;;;;;;;;;;;27.60;39.10;;;26.86;39.64;100653.72;12252409;19;19986;-88
2023/07/15 07:44:54;;;;;;;;;;;27.90;39.10;;;27.10;39.84;100660.50;12253186;19;19923;-87
2023/07/15 07:48:56;;;;;;;;;;;28.10;39.00;;;27.33;39.48;100653.06;12256260;19;19947;-85
2023/07/15 07:52:57;;;;;;;;;;;28.40;38.90;;;27.59;39.52;100663.13;12254326;19;19925;-86
2023/07/15 07:56:59;;;;;;;;;;;28.70;38.60;;;27.79;39.23;100657.88;12254415;19;19925;-86
2023/07/15 08:01:00;;;;;;;;;;;28.90;38.70;;;27.98;39.28;100656.31;12250607;19;19915;-85
2023/07/15 08:05:04;;;;;;;;;;;29.10;38.50;;;28.26;39.36;100652.69;12250339;19;19918;-86
2023/07/15 08:09:05;;;;;;;;;;;29.40;38.30;;;28.44;39.16;100650.28;12241750;19;20329;-87
2023/07/15 08:13:08;;;;;;;;;;;29.60;38.20;;;28.68;39.10;100640.81;12248615;19;19919;-86
2023/07/15 08:17:10;;;;;;;;;;;29.80;38.40;;;28.86;39.17;100626.72;12254963;19;19919;-87
2023/07/15 08:21:12;;;;;;;;;;;30.10;38.20;;;29.21;38.96;100655.28;12257087;19;19914;-86
2023/07/15 08:25:13;;;;;;;;;;;30.30;37.80;;;29.42;38.75;100652.34;12250013;19;19922;-86
2023/07/15 08:29:16;;;;;;;;;;;30.50;38.00;;;29.62;39.07;100628.06;12254732;19;19918;-87
2023/07/15 08:33:18;;;;;;;;;;;30.70;37.90;;;29.87;38.42;100636.28;12247630;19;19931;-85
2023/07/15 08:37:19;;;;;;;;;;;31.00;37.40;;;30.03;38.49;100628.75;12254863;19;19918;-86
2023/07/15 08:41:25;;;;;;;;;;;31.20;37.60;;;30.18;38.57;100623.91;12253330;19;19978;-87
2023/07/15 08:45:30;;;;;;;;;;;31.30;37.50;;;30.41;38.09;100636.84;12253084;19;19923;-86
2023/07/15 08:49:37;;;;;;;;;;;31.50;37.50;;;30.53;38.20;100623.50;12257531;19;19952;-87
2023/07/15 08:53:38;;;;;;;;;;;31.60;36.30;;;30.67;38.17;100614.25;12248815;19;19926;-87
2023/07/15 08:57:40;;;;;;;;;;;31.80;36.70;;;30.74;37.97;100592.63;12251838;19;19955;-86
2023/07/15 09:01:41;;;;;;;;;;;32.00;37.30;;;31.00;38.01;100613.16;12251947;19;19923;-87
2023/07/15 09:05:48;;;;;;;;;;;32.10;36.40;;;31.05;37.73;100597.13;12254799;19;19918;-87
2023/07/15 09:09:49;;;;;;;;;;;32.30;36.10;;;31.36;37.77;100623.19;12262631;19;20315;-87
2023/07/15 09:13:51;;;;;;;;;;;32.40;36.30;;;31.36;37.62;100588.09;12253551;19;19915;-87
2023/07/15 09:17:57;;;;;;;;;;;32.50;35.60;;;31.72;37.36;100614.25;12249948;19;19915;-86
2023/07/15 09:22:06;;;;;;;;;;;32.70;36.70;;;31.84;37.54;100603.53;12249093;19;19923;-86
2023/07/15 09:26:09;;;;;;;;;;;32.80;36.60;;;32.07;37.09;100616.31;12252955;19;19926;-86
2023/07/15 09:30:10;;;;;;;;;;;33.00;35.90;;;31.84;37.03;100549.50;12252886;19;19926;-86
2023/07/15 09:34:12;;;;;;;;;;;33.10;34.80;;;32.34;37.04;100594.31;12251194;19;19918;-87
2023/07/15 09:38:19;;;;;;;;;;;33.30;35.30;;;32.46;36.75;100588.91;12250944;19;19918;-86
2023/07/15 09:42:21;;;;;;;;;;;33.40;36.10;;;32.69;36.36;100601.69;12251659;19;19946;-86
2023/07/15 09:46:22;;;;;;;;;;;33.60;35.60;;;32.61;36.35;100562.28;12252044;19;19915;-87
2023/07/15 09:50:24;;;;;;;;;;;33.70;35.20;;;32.94;36.47;100599.56;12251271;19;19923;-87
2023/07/15 09:54:28;;;;;;;;;;;33.90;36.00;;;33.09;36.26;100598.31;12245920;19;19915;-86
2023/07/15 09:58:32;;;;;;;;;;;34.10;36.40;;;33.30;36.17;100597.69;12242500;19;19915;-86
2023/07/15 10:02:46;;;;;;;;;;;34.20;36.10;;;33.33;36.08;100575.53;12244832;19;19919;-86
2023/07/15 10:06:49;;;;;;;;;;;34.40;36.00;;;33.53;35.81;100601.38;12246769;19;19911;-86
2023/07/15 10:10:51;;;;;;;;;;;34.50;33.90;;;33.67;35.69;100609.00;12249967;19;19947;-86
2023/07/15 10:14:53;;;;;;;;;;;34.50;35.60;;;33.60;35.64;100566.91;12242455;19;19982;-86
2023/07/15 10:18:55;;;;;;;;;;;34.80;34.60;;;33.77;35.32;100584.03;12249244;19;19914;-86
2023/07/15 10:22:58;;;;;;;;;;;34.80;33.80;;;34.06;35.35;100620.09;12249189;19;19922;-86
2023/07/15 10:27:01;;;;;;;;;;;34.90;34.30;;;33.98;35.25;100576.28;12250956;19;20359;-86
2023/07/15 10:31:16;;;;;;;;;;;35.00;32.50;;;34.25;34.94;100604.44;12248231;19;19923;-86
2023/07/15 10:35:18;;;;;;;;;;;35.10;33.40;;;34.33;35.13;100601.31;12242713;19;19911;-86
2023/07/15 10:39:20;;;;;;;;;;;35.20;35.10;;;34.46;35.06;100599.34;12246252;19;19937;-86
2023/07/15 10:43:24;;;;;;;;;;;35.30;34.80;;;34.55;34.90;100598.69;12249110;19;19919;-87
2023/07/15 10:47:27;;;;;;;;;;;35.40;35.20;;;34.67;34.77;100593.19;12246269;19;19923;-86
2023/07/15 10:51:31;;;;;;;;;;;35.50;35.00;;;34.67;34.85;100581.53;12251311;19;19911;-87
2023/07/15 10:55:32;;;;;;;;;;;35.70;35.00;;;34.76;34.51;100570.03;12148254;19;20011;-86
2023/07/15 11:00:05;;;;;;;;;;;35.80;32.00;;;34.91;34.15;100569.41;12212535;19;19936;-85
2023/07/15 11:04:27;;;;;;;;;;;35.90;34.00;;;34.91;34.00;100555.03;12238814;19;19930;-87
2023/07/15 11:08:30;;;;;;;;;;;35.90;32.80;;;35.30;34.25;100612.06;12238373;19;19938;-87
2023/07/15 11:12:32;;;;;;;;;;;36.10;34.40;;;35.36;33.70;100600.19;12242176;19;19915;-87
2023/07/15 11:16:37;;;;;;;;;;;36.20;33.90;;;35.48;33.83;100606.28;12240517;19;20344;-87
2023/07/15 11:20:38;;;;;;;;;;;36.20;32.60;;;35.59;33.88;100590.97;12240764;19;19911;-87
2023/07/15 11:24:39;;;;;;;;;;;36.30;33.60;;;35.65;33.57;100582.63;12242894;19;19919;-88
2023/07/15 11:28:49;;;;;;;;;;;36.50;34.00;;;35.68;33.61;100567.72;12240116;19;20351;-87
2023/07/15 11:32:54;;;;;;;;;;;36.60;34.00;;;35.83;33.64;100567.03;12242955;19;19919;-87
2023/07/15 11:36:56;;;;;;;;;;;36.70;34.20;;;36.00;33.38;100575.91;12238182;19;20355;-87
2023/07/15 11:41:00;;;;;;;;;;;36.80;33.20;;;36.16;33.19;100579.63;12241993;19;19915;-87
2023/07/15 11:45:03;;;;;;;;;;;37.00;31.90;;;36.36;33.21;100600.72;12237560;19;19957;-87
2023/07/15 11:49:05;;;;;;;;;;;37.10;34.20;;;36.34;33.29;100567.53;12242077;19;19968;-88
2023/07/15 11:53:31;;;;;;;;;;;37.30;33.50;;;36.53;32.72;100576.91;12232228;19;19918;-87
2023/07/15 11:57:32;;;;;;;;;;;37.40;33.30;;;36.67;33.08;100581.94;12233511;19;19922;-88
2023/07/15 12:01:36;;;;;;;;;;;37.50;32.90;;;36.74;32.80;100575.19;12239658;19;19922;-87
2023/07/15 12:05:38;;;;;;;;;;;37.50;33.30;;;36.71;32.50;100555.84;12234585;19;19911;-87
2023/07/15 12:09:39;;;;;;;;;;;37.60;33.40;;;36.82;32.60;100554.00;12240836;19;19946;-87
2023/07/15 12:13:41;;;;;;;;;;;37.60;33.80;;;36.87;32.31;100549.41;12238828;19;19923;-87
2023/07/15 12:17:43;;;;;;;;;;;37.60;33.70;;;36.81;32.54;100525.97;12238592;19;19993;-87
2023/07/15 12:21:45;;;;;;;;;;;37.70;34.00;;;37.06;32.46;100547.09;12248331;19;19953;-87
2023/07/15 12:25:46;;;;;;;;;;;37.80;33.60;;;37.17;32.45;100558.84;12249768;19;19934;-88
2023/07/15 12:29:48;;;;;;;;;;;37.90;33.30;;;37.29;32.31;100570.31;12250227;19;20341;-87
2023/07/15 12:33:49;;;;;;;;;;;38.10;28.80;;;37.30;31.43;100552.09;12251641;19;19930;-87
2023/07/15 12:37:51;;;;;;;;;;;38.10;32.20;;;37.36;31.91;100548.28;12248653;19;19968;-88
2023/07/15 12:41:52;;;;;;;;;;;38.10;32.90;;;37.39;31.60;100545.03;12251652;19;19974;-87
2023/07/15 12:45:54;;;;;;;;;;;38.10;30.00;;;37.47;31.36;100546.41;12249966;19;19923;-87
2023/07/15 12:49:56;;;;;;;;;;;38.20;30.00;;;37.46;30.96;100534.69;12248983;19;19945;-87
2023/07/15 12:53:57;;;;;;;;;;;38.20;29.80;;;37.47;30.98;100524.63;12254133;19;20264;-87
2023/07/15 12:57:59;;;;;;;;;;;38.20;30.60;;;37.39;30.72;100513.16;12246518;19;19974;-87
2023/07/15 13:02:01;;;;;;;;;;;38.20;31.20;;;37.52;30.96;100525.47;12249600;19;19915;-87
2023/07/15 13:06:05;;;;;;;;;;;38.20;32.50;;;37.51;30.78;100501.22;12249844;19;19919;-87
2023/07/15 13:10:07;;;;;;;;;;;38.20;32.10;;;37.61;30.60;100509.41;12252301;19;19919;-87
2023/07/15 13:14:09;;;;;;;;;;;38.30;32.00;;;37.65;30.43;100505.06;12248513;19;19930;-88
2023/07/15 13:18:11;;;;;;;;;;;38.30;31.90;;;37.77;30.47;100521.16;12253034;19;19910;-88
2023/07/15 13:22:13;;;;;;;;;;;38.40;31.70;;;37.79;30.14;100517.06;12250109;19;19922;-87
2023/07/15 13:26:15;;;;;;;;;;;38.40;31.50;;;37.81;30.21;100517.63;12251105;19;19925;-87
2023/07/15 13:30:17;;;;;;;;;;;38.50;31.50;;;37.77;30.00;100493.88;12246189;19;19922;-87
2023/07/15 13:34:18;;;;;;;;;;;38.50;32.40;;;37.98;30.12;100513.84;12249220;19;19921;-87
2023/07/15 13:38:19;;;;;;;;;;;38.60;32.00;;;38.00;30.08;100506.22;12252919;19;19911;-87
2023/07/15 13:42:22;;;;;;;;;;;38.70;31.30;;;38.08;29.54;100506.47;12250343;19;19929;-87
2023/07/15 13:46:23;;;;;;;;;;;38.70;31.20;;;38.11;29.63;100494.19;12249381;19;20625;-87
2023/07/15 13:50:25;;;;;;;;;;;38.70;31.00;;;38.14;29.49;100481.94;12248504;19;19922;-87
2023/07/15 13:54:28;;;;;;;;;;;38.80;31.80;;;38.11;29.71;100472.38;12246311;19;19919;-87
2023/07/15 13:58:29;;;;;;;;;;;38.80;31.80;;;38.16;29.61;100477.84;12244828;19;19921;-87
2023/07/15 14:02:36;;;;;;;;;;;38.90;32.10;;;38.34;29.28;100502.88;12246328;19;19923;-87
2023/07/15 14:06:40;;;;;;;;;;;38.90;32.00;;;38.35;29.64;100494.44;12246746;19;19998;-87
2023/07/15 14:10:42;;;;;;;;;;;38.90;31.90;;;38.36;29.41;100487.88;12245333;19;19919;-87
2023/07/15 14:14:44;;;;;;;;;;;39.00;31.10;;;38.32;29.25;100478.63;12248539;19;20238;-87
2023/07/15 14:18:45;;;;;;;;;;;39.00;31.60;;;38.39;29.12;100468.22;12246410;19;19919;-87
2023/07/15 14:22:47;;;;;;;;;;;39.10;31.90;;;38.49;29.25;100491.97;12246463;19;19918;-86
2023/07/15 14:26:49;;;;;;;;;;;39.10;31.70;;;38.44;28.93;100487.34;12242284;19;19923;-87
2023/07/15 14:30:50;;;;;;;;;;;39.00;31.70;;;38.42;28.91;100491.44;12247256;19;19931;-87
2023/07/15 14:34:51;;;;;;;;;;;38.90;31.70;;;38.36;29.03;100481.63;12246183;19;19926;-87
2023/07/15 14:38:53;;;;;;;;;;;38.90;31.10;;;38.40;28.85;100488.13;12245869;19;20405;-87
2023/07/15 14:42:54;;;;;;;;;;;38.90;31.60;;;38.36;28.69;100481.63;12244733;19;19978;-87
2023/07/15 14:46:56;;;;;;;;;;;38.90;31.60;;;38.40;28.59;100482.69;12245491;19;19947;-87
2023/07/15 14:50:57;;;;;;;;;;;38.90;30.90;;;38.23;28.66;100433.88;12247224;19;19930;-87
2023/07/15 14:54:59;;;;;;;;;;;38.90;31.30;;;38.37;28.64;100464.13;12245794;19;19923;-87
2023/07/15 14:59:00;;;;;;;;;;;38.90;31.60;;;38.25;28.50;100448.88;12245959;19;20257;-87
2023/07/15 15:03:02;;;;;;;;;;;38.90;31.50;;;38.30;28.34;100443.41;12245314;19;19919;-87
2023/07/15 15:07:05;;;;;;;;;;;38.80;31.50;;;38.29;28.25;100458.16;12244722;19;19911;-87
2023/07/15 15:11:06;;;;;;;;;;;38.80;31.60;;;38.25;28.62;100454.34;12243937;19;19947;-87
2023/07/15 15:15:08;;;;;;;;;;;38.70;31.30;;;38.22;28.59;100446.72;12245240;19;20316;-87
2023/07/15 15:19:10;;;;;;;;;;;38.70;31.50;;;38.29;28.47;100452.72;12245312;19;19926;-87
2023/07/15 15:23:11;;;;;;;;;;;38.80;31.20;;;38.37;28.18;100455.94;12243307;19;19915;-87
2023/07/15 15:27:13;;;;;;;;;;;38.80;31.60;;;38.28;28.49;100426.50;12242133;19;19974;-87
2023/07/15 15:31:17;;;;;;;;;;;38.80;31.50;;;38.39;28.31;100440.94;12245836;19;19990;-87
2023/07/15 15:35:19;;;;;;;;;;;38.80;31.40;;;38.39;27.93;100431.94;12243643;19;19907;-87
2023/07/15 15:39:21;;;;;;;;;;;38.90;31.50;;;38.39;28.11;100426.47;12245632;19;19919;-87
2023/07/15 15:43:23;;;;;;;;;;;38.90;31.60;;;38.50;28.23;100425.38;12243876;19;19919;-87
2023/07/15 15:47:24;;;;;;;;;;;38.90;31.10;;;38.46;27.84;100430.59;12240046;19;20345;-87
2023/07/15 15:51:26;;;;;;;;;;;38.90;31.40;;;38.44;27.95;100418.31;12245856;19;19911;-87
2023/07/15 15:55:27;;;;;;;;;;;38.90;31.30;;;38.34;27.74;100394.56;12243572;19;19911;-87
2023/07/15 15:59:29;;;;;;;;;;;38.90;31.30;;;38.43;27.73;100411.19;12257523;19;20251;-87
2023/07/15 16:03:32;;;;;;;;;;;38.90;31.20;;;38.43;27.88;100403.84;12252102;19;19923;-87
2023/07/15 16:07:34;;;;;;;;;;;38.90;31.20;;;38.32;27.65;100391.31;12250052;19;19923;-87
2023/07/15 16:11:35;;;;;;;;;;;38.80;31.00;;;38.43;27.47;100412.03;12253351;19;20600;-88
2023/07/15 16:15:36;;;;;;;;;;;38.80;30.90;;;38.25;27.59;100394.31;12249784;19;19921;-87
2023/07/15 16:19:38;;;;;;;;;;;38.90;31.10;;;38.40;27.60;100418.03;12251324;19;19919;-86
2023/07/15 16:23:40;;;;;;;;;;;38.80;31.10;;;38.28;27.64;100399.22;12251610;19;19919;-86
2023/07/15 16:27:42;;;;;;;;;;;38.80;31.10;;;38.35;27.28;100411.75;12247323;19;20301;-87
2023/07/15 16:31:43;;;;;;;;;;;38.80;31.10;;;38.30;27.36;100412.59;12250243;19;19923;-87
2023/07/15 16:35:45;;;;;;;;;;;38.70;31.20;;;38.07;27.57;100386.72;12250887;19;19942;-87
2023/07/15 16:39:47;;;;;;;;;;;38.70;31.40;;;38.04;27.26;100404.47;12246706;19;20318;-87
2023/07/15 16:43:48;;;;;;;;;;;38.60;31.50;;;37.98;27.49;100421.13;12243328;19;19986;-87
2023/07/15 16:47:50;;;;;;;;;;;38.50;31.60;;;37.73;27.51;100411.84;12242321;19;20018;-87
2023/07/15 16:51:51;;;;;;;;;;;38.30;31.60;;;37.42;27.27;100392.72;12251624;19;20336;-87
2023/07/15 16:55:53;;;;;;;;;;;38.10;31.60;;;37.45;27.33;100404.16;12248138;19;20341;-87
2023/07/15 16:59:55;;;;;;;;;;;37.90;32.10;;;37.32;27.51;100410.97;12250272;19;19915;-87
2023/07/15 17:03:56;;;;;;;;;;;37.70;31.80;;;37.04;28.00;100391.31;12249792;19;20317;-87
2023/07/15 17:07:58;;;;;;;;;;;37.50;31.80;;;36.99;27.74;100405.69;12245856;19;19941;-87
2023/07/15 17:12:01;;;;;;;;;;;37.40;31.80;;;36.97;27.80;100412.50;12254911;19;19915;-87
2023/07/15 17:16:02;;;;;;;;;;;37.30;31.90;;;36.84;27.65;100402.94;12245939;19;19933;-87
2023/07/15 17:20:05;;;;;;;;;;;37.20;32.10;;;36.83;27.80;100409.47;12250603;19;19919;-87
2023/07/15 17:24:07;;;;;;;;;;;37.10;32.20;;;36.68;28.19;100399.34;12246016;19;19936;-87
2023/07/15 17:28:08;;;;;;;;;;;37.00;32.10;;;36.68;27.66;100401.25;12243819;19;19974;-87
2023/07/15 17:32:09;;;;;;;;;;;36.90;32.00;;;36.53;27.87;100401.97;12247595;19;19938;-87
2023/07/15 17:36:11;;;;;;;;;;;36.80;32.00;;;36.37;28.12;100398.34;12242469;19;19922;-87
2023/07/15 17:40:13;;;;;;;;;;;36.70;32.00;;;36.12;27.79;100388.16;12249585;19;20278;-87
2023/07/15 17:44:14;;;;;;;;;;;36.50;32.00;;;36.04;27.86;100392.16;12244497;19;19911;-87
2023/07/15 17:48:16;;;;;;;;;;;36.40;32.00;;;35.86;27.97;100387.13;12247343;19;19975;-87
2023/07/15 17:52:18;;;;;;;;;;;36.20;32.10;;;35.89;28.26;100405.66;12248012;19;19966;-87
2023/07/15 17:56:20;;;;;;;;;;;36.10;32.10;;;35.76;27.98;100397.94;12249740;19;19943;-87
2023/07/15 18:00:25;;;;;;;;;;;36.00;32.10;;;35.69;28.10;100406.31;12244890;19;20299;-87
2023/07/15 18:04:26;;;;;;;;;;;35.90;32.20;;;35.62;28.31;100420.13;12247561;19;20001;-87
2023/07/15 18:08:28;;;;;;;;;;;35.80;32.30;;;35.57;28.60;100422.78;12248260;19;19978;-87